Axis, AL (36505)

9:58 PM CDT on July 27, 2016 (GMT -0500)
APRSWXNET | | Change Station

Elev 269 ft 30.98 °N, 88.12 °W | Updated 20 minutes ago

Scattered Clouds
Scattered Clouds
77 °F
Feels Like 78 °F
N
0
Wind Variable Wind from SE
Gusts 0.0 mph

Today
High -- | Low -- °F
--% Chance of Precip.
Yesterday
High -- | Low -- °F
Precip. -- in
Pressure 30.03 in
Visibility 10.0 miles
Clouds Scattered Clouds 25000 ft
Heat Index 78 °F
Dew Point 75 °F
Humidity 95%
Rainfall in
Snow Depth Not available.
6:06 AM 7:50 PM
Last Quarter, 37% visible
METAR KMOB 280256Z 18005KT 10SM SCT250 26/23 A3004 RMK AO2 SLP168 T02560228 55003
Pressure 30.03 in
Visibility 10.0 miles
Clouds Scattered Clouds 25000 ft
Heat Index 78 °F
Dew Point 75 °F
Humidity 95%
Rainfall in
Snow Depth Not available.
6:06 AM 7:50 PM
Last Quarter, 37% visible
METAR KMOB 280256Z 18005KT 10SM SCT250 26/23 A3004 RMK AO2 SLP168 T02560228 55003

10-Day Weather Forecast

Almanac

Astronomy

Jul. 27, 2016 Rise Set
Actual Time
Civil Twilight
Nautical Twilight
Astronomical Twilight
Moon
Length of Visible Light
Length of Day
Tomorrow will be .
, % of the Moon is Illuminated

Today's Extremes

State Highs State Lows

Community

WunderPhotos

Upload Photos

1,928,022 photos uploaded!

WunderBlog® & News

Nearby

Air Quality

  Air Quality AQ Index Pollutant
Not available.

Snow Depth

Station Depth Elevation

Earthquake Activity

City Distance Mag. Time & Date
Minimum magnitude displayed is 2.5.

Coastal Water Temperatures

Place Temperature

Stations

Nearby Weather Stations

Station Location Temp. Windchill Dew Point Humidity Wind Precip. Elev Updated Type
                   

Watches & Warnings

There are currently no watches in effect.